sensor_id;sensor_type;location;lat;lon;timestamp;pressure;altitude;pressure_sealevel;temperature;humidity
70248;BME280;57641;51.416;5.506;2023-03-18T00:00:18;100872.56;;;18.12;47.81
70248;BME280;57641;51.416;5.506;2023-03-18T00:02:44;100863.84;;;18.10;47.91
70248;BME280;57641;51.416;5.506;2023-03-18T00:05:11;100866.13;;;18.06;48.26
70248;BME280;57641;51.416;5.506;2023-03-18T00:07:38;100865.06;;;18.01;48.13
70248;BME280;57641;51.416;5.506;2023-03-18T00:10:05;100865.25;;;17.99;48.50
70248;BME280;57641;51.416;5.506;2023-03-18T00:12:32;100865.00;;;17.94;48.49
70248;BME280;57641;51.416;5.506;2023-03-18T00:14:58;100864.41;;;17.92;48.64
70248;BME280;57641;51.416;5.506;2023-03-18T00:17:27;100868.50;;;17.88;48.85
70248;BME280;57641;51.416;5.506;2023-03-18T00:19:52;100875.34;;;17.84;49.12
70248;BME280;57641;51.416;5.506;2023-03-18T00:22:18;100875.16;;;17.86;49.22
70248;BME280;57641;51.416;5.506;2023-03-18T00:24:44;100881.56;;;17.85;49.31
70248;BME280;57641;51.416;5.506;2023-03-18T00:27:10;100873.47;;;17.85;49.39
70248;BME280;57641;51.416;5.506;2023-03-18T00:29:35;100869.53;;;17.81;49.59
70248;BME280;57641;51.416;5.506;2023-03-18T00:32:02;100871.56;;;17.79;49.44
70248;BME280;57641;51.416;5.506;2023-03-18T00:34:27;100869.72;;;17.79;49.49
70248;BME280;57641;51.416;5.506;2023-03-18T00:36:53;100869.13;;;17.84;49.63
70248;BME280;57641;51.416;5.506;2023-03-18T00:39:25;100885.09;;;17.85;49.62
70248;BME280;57641;51.416;5.506;2023-03-18T00:41:54;100897.28;;;17.75;49.34
70248;BME280;57641;51.416;5.506;2023-03-18T00:44:24;100913.59;;;17.66;49.87
70248;BME280;57641;51.416;5.506;2023-03-18T00:46:50;100910.22;;;17.58;50.23
70248;BME280;57641;51.416;5.506;2023-03-18T00:49:16;100919.91;;;17.52;50.60
70248;BME280;57641;51.416;5.506;2023-03-18T00:51:45;100914.28;;;17.47;51.05
70248;BME280;57641;51.416;5.506;2023-03-18T00:54:12;100926.75;;;17.48;51.01
70248;BME280;57641;51.416;5.506;2023-03-18T00:56:44;100922.31;;;17.41;51.54
70248;BME280;57641;51.416;5.506;2023-03-18T00:59:10;100917.81;;;17.48;51.99
70248;BME280;57641;51.416;5.506;2023-03-18T01:01:36;100922.13;;;17.42;52.88
70248;BME280;57641;51.416;5.506;2023-03-18T01:04:02;100926.25;;;17.38;53.57
70248;BME280;57641;51.416;5.506;2023-03-18T01:06:30;100916.84;;;17.27;54.27
70248;BME280;57641;51.416;5.506;2023-03-18T01:08:57;100923.91;;;17.28;55.32
70248;BME280;57641;51.416;5.506;2023-03-18T01:11:24;100913.91;;;17.22;55.86
70248;BME280;57641;51.416;5.506;2023-03-18T01:13:50;100910.63;;;17.27;55.85
70248;BME280;57641;51.416;5.506;2023-03-18T01:16:16;100902.28;;;17.22;56.31
70248;BME280;57641;51.416;5.506;2023-03-18T01:18:42;100899.63;;;17.01;56.95
70248;BME280;57641;51.416;5.506;2023-03-18T01:21:08;100901.78;;;17.12;56.82
70248;BME280;57641;51.416;5.506;2023-03-18T01:23:35;100895.66;;;16.97;57.73
70248;BME280;57641;51.416;5.506;2023-03-18T01:26:02;100898.97;;;16.99;57.64
70248;BME280;57641;51.416;5.506;2023-03-18T01:28:27;100903.25;;;16.93;57.54
70248;BME280;57641;51.416;5.506;2023-03-18T01:30:54;100903.34;;;16.78;58.47
70248;BME280;57641;51.416;5.506;2023-03-18T01:33:22;100895.91;;;16.59;59.18
70248;BME280;57641;51.416;5.506;2023-03-18T01:35:54;100885.91;;;16.38;59.53
70248;BME280;57641;51.416;5.506;2023-03-18T01:38:21;100892.09;;;16.54;59.69
70248;BME280;57641;51.416;5.506;2023-03-18T01:40:48;100889.75;;;16.51;59.67
70248;BME280;57641;51.416;5.506;2023-03-18T01:43:25;100896.78;;;16.66;59.06
70248;BME280;57641;51.416;5.506;2023-03-18T01:45:55;100887.97;;;16.58;59.80
70248;BME280;57641;51.416;5.506;2023-03-18T01:48:27;100890.59;;;16.51;60.01
70248;BME280;57641;51.416;5.506;2023-03-18T01:50:59;100893.38;;;16.58;59.75
70248;BME280;57641;51.416;5.506;2023-03-18T01:53:29;100889.94;;;16.64;59.68
70248;BME280;57641;51.416;5.506;2023-03-18T01:55:56;100889.28;;;16.62;59.57
70248;BME280;57641;51.416;5.506;2023-03-18T01:58:32;100881.41;;;16.45;60.22
70248;BME280;57641;51.416;5.506;2023-03-18T02:01:19;100892.66;;;16.49;59.83
70248;BME280;57641;51.416;5.506;2023-03-18T02:03:47;100891.81;;;16.48;60.01
70248;BME280;57641;51.416;5.506;2023-03-18T02:06:17;100897.13;;;16.42;60.15
70248;BME280;57641;51.416;5.506;2023-03-18T02:08:43;100898.66;;;16.51;60.21
70248;BME280;57641;51.416;5.506;2023-03-18T02:11:10;100905.72;;;16.52;60.10
70248;BME280;57641;51.416;5.506;2023-03-18T02:13:38;100901.44;;;16.58;60.24
70248;BME280;57641;51.416;5.506;2023-03-18T02:16:25;100901.91;;;16.61;60.14
70248;BME280;57641;51.416;5.506;2023-03-18T02:19:03;100908.16;;;16.47;60.76
70248;BME280;57641;51.416;5.506;2023-03-18T02:22:07;100903.53;;;16.41;60.82
70248;BME280;57641;51.416;5.506;2023-03-18T02:24:48;100909.66;;;16.35;61.19
70248;BME280;57641;51.416;5.506;2023-03-18T02:27:25;100911.03;;;16.45;60.80
70248;BME280;57641;51.416;5.506;2023-03-18T02:29:56;100912.44;;;16.41;60.97
70248;BME280;57641;51.416;5.506;2023-03-18T02:32:28;100904.25;;;16.50;61.10
70248;BME280;57641;51.416;5.506;2023-03-18T02:34:55;100903.97;;;16.59;60.64
70248;BME280;57641;51.416;5.506;2023-03-18T02:37:21;100908.41;;;16.52;60.29
70248;BME280;57641;51.416;5.506;2023-03-18T02:39:47;100910.00;;;16.61;60.54
70248;BME280;57641;51.416;5.506;2023-03-18T02:42:13;100915.91;;;16.57;60.48
70248;BME280;57641;51.416;5.506;2023-03-18T02:44:44;100913.97;;;16.51;60.46
70248;BME280;57641;51.416;5.506;2023-03-18T02:47:18;100922.75;;;16.38;60.86
70248;BME280;57641;51.416;5.506;2023-03-18T02:49:45;100921.38;;;16.27;61.33
70248;BME280;57641;51.416;5.506;2023-03-18T02:52:13;100920.19;;;16.15;62.24
70248;BME280;57641;51.416;5.506;2023-03-18T02:54:39;100920.75;;;16.11;62.12
70248;BME280;57641;51.416;5.506;2023-03-18T02:57:05;100928.25;;;16.15;62.10
70248;BME280;57641;51.416;5.506;2023-03-18T02:59:31;100940.78;;;16.08;62.51
70248;BME280;57641;51.416;5.506;2023-03-18T03:01:57;100927.13;;;16.24;62.15
70248;BME280;57641;51.416;5.506;2023-03-18T03:04:24;100931.56;;;16.32;61.88
70248;BME280;57641;51.416;5.506;2023-03-18T03:06:50;100937.31;;;16.29;61.67
70248;BME280;57641;51.416;5.506;2023-03-18T03:09:17;100932.97;;;16.28;61.88
70248;BME280;57641;51.416;5.506;2023-03-18T03:11:45;100938.91;;;16.38;61.60
70248;BME280;57641;51.416;5.506;2023-03-18T03:14:12;100945.38;;;16.29;61.83
70248;BME280;57641;51.416;5.506;2023-03-18T03:16:38;100940.69;;;16.16;61.86
70248;BME280;57641;51.416;5.506;2023-03-18T03:19:05;100943.66;;;16.21;62.45
70248;BME280;57641;51.416;5.506;2023-03-18T03:21:33;100949.41;;;16.33;61.88
70248;BME280;57641;51.416;5.506;2023-03-18T03:24:02;100950.06;;;16.05;62.53
70248;BME280;57641;51.416;5.506;2023-03-18T03:26:29;100943.38;;;16.16;62.65
70248;BME280;57641;51.416;5.506;2023-03-18T03:28:55;100941.31;;;16.18;62.53
70248;BME280;57641;51.416;5.506;2023-03-18T03:31:21;100940.41;;;16.26;62.50
70248;BME280;57641;51.416;5.506;2023-03-18T03:33:48;100936.22;;;16.23;62.68
70248;BME280;57641;51.416;5.506;2023-03-18T03:36:15;100944.00;;;16.33;62.71
70248;BME280;57641;51.416;5.506;2023-03-18T03:38:42;100945.66;;;16.34;62.44
70248;BME280;57641;51.416;5.506;2023-03-18T03:41:09;100949.97;;;16.28;62.48
70248;BME280;57641;51.416;5.506;2023-03-18T03:43:39;100955.41;;;16.35;62.48
70248;BME280;57641;51.416;5.506;2023-03-18T03:46:06;100965.63;;;16.25;62.67
70248;BME280;57641;51.416;5.506;2023-03-18T03:48:32;100949.00;;;16.36;62.50
70248;BME280;57641;51.416;5.506;2023-03-18T03:50:58;100951.69;;;16.36;62.39
70248;BME280;57641;51.416;5.506;2023-03-18T03:53:25;100950.22;;;16.33;62.23
70248;BME280;57641;51.416;5.506;2023-03-18T03:55:52;100958.66;;;16.30;62.37
70248;BME280;57641;51.416;5.506;2023-03-18T03:58:19;100967.47;;;16.39;62.47
70248;BME280;57641;51.416;5.506;2023-03-18T04:00:44;100964.69;;;16.32;62.58
70248;BME280;57641;51.416;5.506;2023-03-18T04:03:10;100967.19;;;16.34;62.38
70248;BME280;57641;51.416;5.506;2023-03-18T04:05:36;100981.88;;;16.17;63.00
70248;BME280;57641;51.416;5.506;2023-03-18T04:08:02;100973.88;;;16.09;63.22
70248;BME280;57641;51.416;5.506;2023-03-18T04:10:28;100977.88;;;16.13;63.31
70248;BME280;57641;51.416;5.506;2023-03-18T04:12:59;100975.19;;;16.13;63.45
70248;BME280;57641;51.416;5.506;2023-03-18T04:15:24;100972.31;;;16.14;63.07
70248;BME280;57641;51.416;5.506;2023-03-18T04:17:52;100983.56;;;16.18;63.15
70248;BME280;57641;51.416;5.506;2023-03-18T04:20:17;100973.88;;;16.23;62.88
70248;BME280;57641;51.416;5.506;2023-03-18T04:22:43;100978.34;;;16.16;62.81
70248;BME280;57641;51.416;5.506;2023-03-18T04:25:10;100979.75;;;16.27;62.91
70248;BME280;57641;51.416;5.506;2023-03-18T04:27:36;100980.31;;;16.22;62.82
70248;BME280;57641;51.416;5.506;2023-03-18T04:30:05;100979.81;;;16.19;62.99
70248;BME280;57641;51.416;5.506;2023-03-18T04:32:31;100978.25;;;16.24;63.02
70248;BME280;57641;51.416;5.506;2023-03-18T04:34:56;100980.38;;;16.29;62.60
70248;BME280;57641;51.416;5.506;2023-03-18T04:37:22;100983.91;;;16.29;62.79
70248;BME280;57641;51.416;5.506;2023-03-18T04:39:48;100979.91;;;16.25;62.68
70248;BME280;57641;51.416;5.506;2023-03-18T04:42:14;100987.81;;;16.27;62.80
70248;BME280;57641;51.416;5.506;2023-03-18T04:44:41;101001.00;;;16.22;62.72
70248;BME280;57641;51.416;5.506;2023-03-18T04:47:10;100993.66;;;16.16;63.23
70248;BME280;57641;51.416;5.506;2023-03-18T04:49:37;100993.00;;;16.14;63.07
70248;BME280;57641;51.416;5.506;2023-03-18T04:52:03;101001.63;;;16.09;63.16
70248;BME280;57641;51.416;5.506;2023-03-18T04:54:29;101000.41;;;15.97;63.46
70248;BME280;57641;51.416;5.506;2023-03-18T04:56:55;100997.09;;;16.10;63.59
70248;BME280;57641;51.416;5.506;2023-03-18T04:59:21;100999.38;;;16.13;63.20
70248;BME280;57641;51.416;5.506;2023-03-18T05:01:47;101006.38;;;16.07;63.10
70248;BME280;57641;51.416;5.506;2023-03-18T05:04:12;101008.84;;;16.09;63.15
70248;BME280;57641;51.416;5.506;2023-03-18T05:06:37;101009.25;;;16.05;63.25
70248;BME280;57641;51.416;5.506;2023-03-18T05:09:04;101007.00;;;16.09;63.05
70248;BME280;57641;51.416;5.506;2023-03-18T05:11:30;101016.19;;;16.00;63.76
70248;BME280;57641;51.416;5.506;2023-03-18T05:13:56;101015.13;;;15.86;63.71
70248;BME280;57641;51.416;5.506;2023-03-18T05:16:22;101008.97;;;15.86;63.78
70248;BME280;57641;51.416;5.506;2023-03-18T05:18:49;101002.91;;;15.98;63.57
70248;BME280;57641;51.416;5.506;2023-03-18T05:21:16;101004.88;;;16.04;63.42
70248;BME280;57641;51.416;5.506;2023-03-18T05:23:42;101007.94;;;16.01;62.82
70248;BME280;57641;51.416;5.506;2023-03-18T05:26:08;101011.47;;;16.02;63.08
70248;BME280;57641;51.416;5.506;2023-03-18T05:28:36;100998.31;;;16.07;63.27
70248;BME280;57641;51.416;5.506;2023-03-18T05:31:02;101007.66;;;16.11;62.31
70248;BME280;57641;51.416;5.506;2023-03-18T05:33:28;101005.53;;;16.07;62.33
70248;BME280;57641;51.416;5.506;2023-03-18T05:35:54;101014.25;;;16.09;61.95
70248;BME280;57641;51.416;5.506;2023-03-18T05:38:19;101016.28;;;16.07;62.24
70248;BME280;57641;51.416;5.506;2023-03-18T05:40:45;101016.19;;;16.15;62.07
70248;BME280;57641;51.416;5.506;2023-03-18T05:43:11;101020.38;;;16.17;61.97
70248;BME280;57641;51.416;5.506;2023-03-18T05:45:37;101021.75;;;16.13;61.63
70248;BME280;57641;51.416;5.506;2023-03-18T05:48:04;101032.06;;;16.10;61.32
70248;BME280;57641;51.416;5.506;2023-03-18T05:50:37;101031.59;;;16.06;61.56
70248;BME280;57641;51.416;5.506;2023-03-18T05:53:03;101035.41;;;16.12;60.89
70248;BME280;57641;51.416;5.506;2023-03-18T05:55:30;101044.56;;;16.02;61.23
70248;BME280;57641;51.416;5.506;2023-03-18T05:57:56;101040.94;;;15.95;61.39
70248;BME280;57641;51.416;5.506;2023-03-18T06:00:24;101046.31;;;15.95;61.73
70248;BME280;57641;51.416;5.506;2023-03-18T06:02:50;101044.81;;;15.93;61.65
70248;BME280;57641;51.416;5.506;2023-03-18T06:05:17;101045.03;;;15.91;61.93
70248;BME280;57641;51.416;5.506;2023-03-18T06:07:44;101041.56;;;15.83;61.73
70248;BME280;57641;51.416;5.506;2023-03-18T06:10:10;101044.44;;;15.81;62.12
70248;BME280;57641;51.416;5.506;2023-03-18T06:12:37;101044.91;;;15.85;62.12
70248;BME280;57641;51.416;5.506;2023-03-18T06:15:06;101039.53;;;15.85;61.78
70248;BME280;57641;51.416;5.506;2023-03-18T06:17:32;101026.84;;;15.93;61.72
70248;BME280;57641;51.416;5.506;2023-03-18T06:19:58;101035.38;;;15.97;61.46
70248;BME280;57641;51.416;5.506;2023-03-18T06:22:24;101045.78;;;16.00;60.96
70248;BME280;57641;51.416;5.506;2023-03-18T06:24:52;101040.75;;;15.97;60.82
70248;BME280;57641;51.416;5.506;2023-03-18T06:27:18;101046.31;;;15.95;61.04
70248;BME280;57641;51.416;5.506;2023-03-18T06:29:46;101045.84;;;15.92;61.01
70248;BME280;57641;51.416;5.506;2023-03-18T06:32:12;101049.38;;;15.92;60.75
70248;BME280;57641;51.416;5.506;2023-03-18T06:34:38;101055.13;;;15.89;60.86
70248;BME280;57641;51.416;5.506;2023-03-18T06:37:04;101063.06;;;15.83;60.97
70248;BME280;57641;51.416;5.506;2023-03-18T06:39:29;101067.81;;;15.81;61.15
70248;BME280;57641;51.416;5.506;2023-03-18T06:41:55;101060.75;;;15.80;61.52
70248;BME280;57641;51.416;5.506;2023-03-18T06:44:21;101061.09;;;15.77;61.63
70248;BME280;57641;51.416;5.506;2023-03-18T06:46:47;101059.09;;;15.79;61.97
70248;BME280;57641;51.416;5.506;2023-03-18T06:49:16;101059.22;;;15.62;61.68
70248;BME280;57641;51.416;5.506;2023-03-18T06:51:42;101053.94;;;15.54;62.60
70248;BME280;57641;51.416;5.506;2023-03-18T06:54:08;101063.09;;;15.60;62.68
70248;BME280;57641;51.416;5.506;2023-03-18T06:56:34;101065.16;;;15.50;63.39
70248;BME280;57641;51.416;5.506;2023-03-18T06:59:04;101068.69;;;15.50;63.22
70248;BME280;57641;51.416;5.506;2023-03-18T07:01:34;101073.47;;;15.40;63.41
70248;BME280;57641;51.416;5.506;2023-03-18T07:04:00;101075.38;;;15.32;63.89
70248;BME280;57641;51.416;5.506;2023-03-18T07:06:28;101083.31;;;15.25;64.46
70248;BME280;57641;51.416;5.506;2023-03-18T07:08:55;101079.94;;;15.31;64.35
70248;BME280;57641;51.416;5.506;2023-03-18T07:11:21;101077.84;;;15.41;64.44
70248;BME280;57641;51.416;5.506;2023-03-18T07:13:48;101078.50;;;15.43;63.85
70248;BME280;57641;51.416;5.506;2023-03-18T07:16:14;101083.22;;;15.41;63.32
70248;BME280;57641;51.416;5.506;2023-03-18T07:18:40;101081.81;;;15.53;63.48
70248;BME280;57641;51.416;5.506;2023-03-18T07:21:07;101083.66;;;15.53;63.58
70248;BME280;57641;51.416;5.506;2023-03-18T07:23:34;101091.44;;;15.40;63.24
70248;BME280;57641;51.416;5.506;2023-03-18T07:25:59;101095.56;;;15.28;64.64
70248;BME280;57641;51.416;5.506;2023-03-18T07:28:25;101095.06;;;15.24;64.09
70248;BME280;57641;51.416;5.506;2023-03-18T07:30:50;101098.06;;;15.29;64.09
70248;BME280;57641;51.416;5.506;2023-03-18T07:33:16;101100.25;;;15.56;63.58
70248;BME280;57641;51.416;5.506;2023-03-18T07:35:42;101103.63;;;15.58;63.61
70248;BME280;57641;51.416;5.506;2023-03-18T07:38:09;101109.00;;;15.50;63.86
70248;BME280;57641;51.416;5.506;2023-03-18T07:40:35;101106.06;;;15.68;62.92
70248;BME280;57641;51.416;5.506;2023-03-18T07:43:03;101110.41;;;15.69;63.38
70248;BME280;57641;51.416;5.506;2023-03-18T07:45:29;101120.09;;;15.78;62.83
70248;BME280;57641;51.416;5.506;2023-03-18T07:47:55;101122.09;;;15.99;61.36
70248;BME280;57641;51.416;5.506;2023-03-18T07:50:20;101121.38;;;15.82;62.19
70248;BME280;57641;51.416;5.506;2023-03-18T07:52:46;101126.16;;;15.95;61.53
70248;BME280;57641;51.416;5.506;2023-03-18T07:55:12;101123.34;;;15.88;61.11
70248;BME280;57641;51.416;5.506;2023-03-18T07:57:38;101118.66;;;15.90;61.56
70248;BME280;57641;51.416;5.506;2023-03-18T08:00:06;101129.72;;;16.10;61.54
70248;BME280;57641;51.416;5.506;2023-03-18T08:02:32;101129.44;;;16.05;61.61
70248;BME280;57641;51.416;5.506;2023-03-18T08:04:58;101123.75;;;16.00;61.72
70248;BME280;57641;51.416;5.506;2023-03-18T08:07:24;101115.97;;;16.05;61.33
70248;BME280;57641;51.416;5.506;2023-03-18T08:09:50;101115.09;;;16.27;61.28
70248;BME280;57641;51.416;5.506;2023-03-18T08:12:16;101106.94;;;16.35;61.07
70248;BME280;57641;51.416;5.506;2023-03-18T08:14:41;101108.78;;;16.35;61.24
70248;BME280;57641;51.416;5.506;2023-03-18T08:17:08;101108.50;;;16.15;61.57
70248;BME280;57641;51.416;5.506;2023-03-18T08:19:34;101110.19;;;16.31;60.83
70248;BME280;57641;51.416;5.506;2023-03-18T08:22:00;101117.56;;;16.14;60.52
70248;BME280;57641;51.416;5.506;2023-03-18T08:24:26;101116.41;;;16.31;60.69
70248;BME280;57641;51.416;5.506;2023-03-18T08:26:55;101119.28;;;16.44;60.39
70248;BME280;57641;51.416;5.506;2023-03-18T08:29:20;101116.69;;;16.51;59.61
70248;BME280;57641;51.416;5.506;2023-03-18T08:31:46;101116.25;;;16.62;59.50
70248;BME280;57641;51.416;5.506;2023-03-18T08:34:11;101132.03;;;16.80;58.76
70248;BME280;57641;51.416;5.506;2023-03-18T08:36:40;101125.56;;;16.22;59.83
70248;BME280;57641;51.416;5.506;2023-03-18T08:39:06;101129.22;;;16.44;59.41
70248;BME280;57641;51.416;5.506;2023-03-18T08:41:34;101128.13;;;16.68;58.90
70248;BME280;57641;51.416;5.506;2023-03-18T08:44:01;101134.25;;;16.76;58.88
70248;BME280;57641;51.416;5.506;2023-03-18T08:46:27;101136.09;;;16.61;58.80
70248;BME280;57641;51.416;5.506;2023-03-18T08:48:52;101135.75;;;16.79;58.34
70248;BME280;57641;51.416;5.506;2023-03-18T08:51:19;101132.94;;;16.58;57.99
70248;BME280;57641;51.416;5.506;2023-03-18T08:53:47;101129.16;;;16.67;57.91
70248;BME280;57641;51.416;5.506;2023-03-18T08:56:13;101131.75;;;16.89;57.24
70248;BME280;57641;51.416;5.506;2023-03-18T08:58:39;101141.00;;;16.58;57.61
70248;BME280;57641;51.416;5.506;2023-03-18T09:01:05;101135.03;;;16.70;57.50
70248;BME280;57641;51.416;5.506;2023-03-18T09:03:32;101134.47;;;16.75;57.25
70248;BME280;57641;51.416;5.506;2023-03-18T09:05:59;101134.25;;;16.91;57.37
70248;BME280;57641;51.416;5.506;2023-03-18T09:08:28;101142.72;;;16.73;57.12
70248;BME280;57641;51.416;5.506;2023-03-18T09:10:55;101135.66;;;16.72;57.89
70248;BME280;57641;51.416;5.506;2023-03-18T09:13:22;101137.03;;;16.83;57.80
70248;BME280;57641;51.416;5.506;2023-03-18T09:15:48;101142.53;;;16.89;56.39
70248;BME280;57641;51.416;5.506;2023-03-18T09:18:15;101132.78;;;17.39;56.30
70248;BME280;57641;51.416;5.506;2023-03-18T09:20:41;101131.66;;;17.34;55.88
70248;BME280;57641;51.416;5.506;2023-03-18T09:23:08;101139.03;;;17.46;56.03
70248;BME280;57641;51.416;5.506;2023-03-18T09:25:34;101153.41;;;17.32;55.71
70248;BME280;57641;51.416;5.506;2023-03-18T09:28:00;101147.47;;;17.58;55.47
70248;BME280;57641;51.416;5.506;2023-03-18T09:30:26;101138.31;;;17.73;55.18
70248;BME280;57641;51.416;5.506;2023-03-18T09:32:53;101130.63;;;17.92;54.69
70248;BME280;57641;51.416;5.506;2023-03-18T09:35:18;101142.47;;;18.19;54.31
70248;BME280;57641;51.416;5.506;2023-03-18T09:37:44;101134.69;;;18.09;54.46
70248;BME280;57641;51.416;5.506;2023-03-18T09:40:27;101134.03;;;18.28;53.93
70248;BME280;57641;51.416;5.506;2023-03-18T09:45:47;101135.53;;;18.37;53.20
70248;BME280;57641;51.416;5.506;2023-03-18T09:53:57;101150.66;;;18.32;53.24
70248;BME280;57641;51.416;5.506;2023-03-18T09:56:30;101144.22;;;18.33;52.99
70248;BME280;57641;51.416;5.506;2023-03-18T09:59:05;101140.09;;;18.37;53.90
70248;BME280;57641;51.416;5.506;2023-03-18T10:01:37;101142.06;;;18.49;53.32
70248;BME280;57641;51.416;5.506;2023-03-18T10:04:10;101139.38;;;18.49;53.63
70248;BME280;57641;51.416;5.506;2023-03-18T10:06:39;101140.34;;;18.42;52.77
70248;BME280;57641;51.416;5.506;2023-03-18T10:09:18;101141.22;;;18.49;53.43
70248;BME280;57641;51.416;5.506;2023-03-18T10:11:49;101136.91;;;18.89;52.56
70248;BME280;57641;51.416;5.506;2023-03-18T10:14:20;101139.28;;;19.05;52.30
70248;BME280;57641;51.416;5.506;2023-03-18T10:19:20;101135.53;;;19.06;51.31
70248;BME280;57641;51.416;5.506;2023-03-18T10:22:11;101135.63;;;19.32;50.70
70248;BME280;57641;51.416;5.506;2023-03-18T10:35:59;101119.72;;;19.51;50.04
70248;BME280;57641;51.416;5.506;2023-03-18T10:38:30;101123.03;;;19.59;49.18
70248;BME280;57641;51.416;5.506;2023-03-18T10:41:01;101118.50;;;19.66;48.46
70248;BME280;57641;51.416;5.506;2023-03-18T10:43:33;101127.25;;;19.81;48.96
70248;BME280;57641;51.416;5.506;2023-03-18T10:46:02;101125.97;;;19.64;48.17
70248;BME280;57641;51.416;5.506;2023-03-18T10:48:35;101129.50;;;19.65;48.13
70248;BME280;57641;51.416;5.506;2023-03-18T10:51:56;101131.81;;;19.61;47.51
70248;BME280;57641;51.416;5.506;2023-03-18T10:54:20;101124.09;;;19.65;47.59
70248;BME280;57641;51.416;5.506;2023-03-18T10:56:47;101129.06;;;19.68;47.27
70248;BME280;57641;51.416;5.506;2023-03-18T10:59:16;101128.03;;;19.62;47.01
70248;BME280;57641;51.416;5.506;2023-03-18T11:02:04;101141.13;;;19.59;46.72
70248;BME280;57641;51.416;5.506;2023-03-18T11:05:03;101129.91;;;19.62;46.26
70248;BME280;57641;51.416;5.506;2023-03-18T11:08:00;101130.53;;;19.57;45.99
70248;BME280;57641;51.416;5.506;2023-03-18T11:10:34;101135.03;;;19.37;46.99
70248;BME280;57641;51.416;5.506;2023-03-18T11:13:01;101132.81;;;19.54;45.86
70248;BME280;57641;51.416;5.506;2023-03-18T11:15:28;101131.97;;;19.53;46.26
70248;BME280;57641;51.416;5.506;2023-03-18T11:18:01;101133.56;;;19.34;45.96
70248;BME280;57641;51.416;5.506;2023-03-18T11:20:42;101148.06;;;19.14;46.85
70248;BME280;57641;51.416;5.506;2023-03-18T11:23:27;101144.06;;;19.10;47.54
70248;BME280;57641;51.416;5.506;2023-03-18T11:26:19;101141.41;;;19.16;48.14
70248;BME280;57641;51.416;5.506;2023-03-18T11:28:45;101142.50;;;19.28;47.88
70248;BME280;57641;51.416;5.506;2023-03-18T11:31:16;101155.78;;;19.23;48.81
70248;BME280;57641;51.416;5.506;2023-03-18T11:33:47;101144.97;;;19.23;48.94
70248;BME280;57641;51.416;5.506;2023-03-18T11:36:16;101152.81;;;19.12;48.93
70248;BME280;57641;51.416;5.506;2023-03-18T11:39:00;101157.84;;;19.21;47.71
70248;BME280;57641;51.416;5.506;2023-03-18T11:41:27;101156.22;;;19.33;47.13
70248;BME280;57641;51.416;5.506;2023-03-18T11:46:36;101158.50;;;19.23;48.28
70248;BME280;57641;51.416;5.506;2023-03-18T11:49:04;101163.13;;;19.42;48.00
70248;BME280;57641;51.416;5.506;2023-03-18T11:57:03;101161.66;;;19.40;48.24
70248;BME280;57641;51.416;5.506;2023-03-18T12:11:21;101163.53;;;19.39;48.62
70248;BME280;57641;51.416;5.506;2023-03-18T12:16:43;101160.75;;;19.20;47.49
70248;BME280;57641;51.416;5.506;2023-03-18T12:19:35;101145.41;;;19.33;48.36
70248;BME280;57641;51.416;5.506;2023-03-18T12:33:18;101154.09;;;19.22;48.68
70248;BME280;57641;51.416;5.506;2023-03-18T12:36:23;101148.00;;;19.01;48.99
70248;BME280;57641;51.416;5.506;2023-03-18T12:39:14;101152.31;;;18.95;49.21
70248;BME280;57641;51.416;5.506;2023-03-18T12:42:17;101144.69;;;19.05;49.21
70248;BME280;57641;51.416;5.506;2023-03-18T12:45:01;101152.63;;;19.13;48.94
70248;BME280;57641;51.416;5.506;2023-03-18T12:47:35;101145.13;;;19.15;49.31
70248;BME280;57641;51.416;5.506;2023-03-18T12:50:11;101156.38;;;18.78;52.44
70248;BME280;57641;51.416;5.506;2023-03-18T12:53:21;101165.84;;;18.95;53.29
70248;BME280;57641;51.416;5.506;2023-03-18T12:55:53;101156.13;;;18.66;54.03
70248;BME280;57641;51.416;5.506;2023-03-18T12:58:44;101158.69;;;18.81;54.61
70248;BME280;57641;51.416;5.506;2023-03-18T13:01:20;101156.28;;;18.92;54.56
70248;BME280;57641;51.416;5.506;2023-03-18T13:03:56;101157.06;;;18.86;54.70
70248;BME280;57641;51.416;5.506;2023-03-18T13:06:43;101150.84;;;18.86;55.13
70248;BME280;57641;51.416;5.506;2023-03-18T13:09:34;101151.16;;;18.70;54.92
70248;BME280;57641;51.416;5.506;2023-03-18T13:12:19;101145.88;;;18.55;54.88
70248;BME280;57641;51.416;5.506;2023-03-18T13:15:05;101140.53;;;18.40;54.12
70248;BME280;57641;51.416;5.506;2023-03-18T13:17:41;101152.94;;;18.35;53.50
70248;BME280;57641;51.416;5.506;2023-03-18T13:44:40;101137.31;;;18.86;50.21
70248;BME280;57641;51.416;5.506;2023-03-18T13:47:17;101139.00;;;18.93;49.31
70248;BME280;57641;51.416;5.506;2023-03-18T13:49:44;101138.16;;;18.86;50.78
70248;BME280;57641;51.416;5.506;2023-03-18T13:52:34;101145.09;;;19.02;49.39
70248;BME280;57641;51.416;5.506;2023-03-18T13:55:03;101148.97;;;18.86;49.67
70248;BME280;57641;51.416;5.506;2023-03-18T13:57:34;101150.69;;;19.01;49.21
70248;BME280;57641;51.416;5.506;2023-03-18T14:02:44;101144.47;;;19.07;49.13
70248;BME280;57641;51.416;5.506;2023-03-18T14:05:33;101143.00;;;19.45;49.67
70248;BME280;57641;51.416;5.506;2023-03-18T14:08:03;101138.00;;;19.49;48.67
70248;BME280;57641;51.416;5.506;2023-03-18T14:10:30;101128.44;;;19.59;48.14
70248;BME280;57641;51.416;5.506;2023-03-18T14:13:25;101126.97;;;19.57;47.63
70248;BME280;57641;51.416;5.506;2023-03-18T14:15:54;101125.84;;;19.31;47.85
70248;BME280;57641;51.416;5.506;2023-03-18T14:18:23;101109.31;;;19.54;47.94
70248;BME280;57641;51.416;5.506;2023-03-18T14:20:57;101103.19;;;19.32;47.64
70248;BME280;57641;51.416;5.506;2023-03-18T14:23:41;101107.31;;;19.22;47.62
70248;BME280;57641;51.416;5.506;2023-03-18T14:26:18;101108.50;;;19.06;48.12